Patterson, Illinois
Current Conditions -  °F | °C
As of 11:55 AM on Friday 21 Nov 2014 (Local Time) from KPPQ Reporting Station
Clear Clear  
Wind Chill: 28°   Ceiling: Unl
Heat Index: 36°   Visibility: 10mi
Dew Point: 17°   Wind: 12mph
Humidity: 46%   Direction: 120°ESE
Pressure: 30.37"   Gusts: NA
Location:  39.48°N, 90.48°W
Report Text: KPPQ 211755Z AUTO 12010KT 10SM CLR 02/M08 A3037 RMK AO2 T00221083 10022 21082 PWINO
Loading
Personal Weather Stations






























Interactive Weather Map New forecast layout! Learn more

10-Day Weather Forecast

Advertisements
Track Severe Weather on mobile